Terminal Aerodrome Forecast
Issued by NWS St Louis, MO

Home | Current Version | Previous Version | Text Only | Print | Product List | Glossary On
Versions: 1 2 3 4 5 6 7 8 9 10 11 12 13 14 15 16 17 18 19 20 21 22 23 24 25 26 27 28 29 30 31 32 33 34 35 36 37 38 39 40 41 42 43 44
000
FTUS43 KLSX 211722
TAFSTL
TAF
KSTL 211722Z 2118/2224 25007KT P6SM SCT015 BKN025
      TEMPO 2118/2120 BKN015
     FM212100 21005KT P6SM VCTS BKN035CB
     FM220000 VRB03KT P6SM SCT100
     FM220900 35004KT P6SM FEW030=

USA.gov is the U.S. government's official web portal to all federal, state and local government web resources and services.